createdAt,value
2022-10-13T16:11:15.257Z,102265.88
2022-10-13T16:13:48.561Z,102279.16
2022-10-13T16:16:18.636Z,102266.78
2022-10-13T16:18:48.464Z,102271.81
2022-10-13T16:21:19.230Z,102272.28
2022-10-13T16:23:49.664Z,102268.91
2022-10-13T16:27:55.985Z,102279.66
2022-10-13T16:30:27.385Z,102281.53
2022-10-13T16:32:58.622Z,102274.66
2022-10-13T16:35:29.395Z,102278.41
2022-10-13T16:38:01.773Z,102274.03
2022-10-13T16:40:33.387Z,102279.19
2022-10-13T16:43:07.935Z,102283.16
2022-10-13T16:45:59.191Z,102278.56
2022-10-13T16:48:35.122Z,102278.66
2022-10-13T16:51:12.509Z,102282.53
2022-10-13T16:53:44.648Z,102280.16
2022-10-13T16:56:22.447Z,102276.66
2022-10-13T16:58:57.402Z,102286.91
2022-10-13T17:01:28.926Z,102283.38
2022-10-13T17:04:00.288Z,102285.63
2022-10-13T17:06:32.076Z,102283.53
2022-10-13T17:09:04.228Z,102287.41
2022-10-13T17:11:39.737Z,102270.66
2022-10-13T17:14:12.862Z,102275.41
2022-10-13T17:16:45.164Z,102279.19
2022-10-13T17:19:16.841Z,102276.16
2022-10-13T17:21:47.660Z,102278.19
2022-10-13T17:24:19.824Z,102273.53
2022-10-13T17:26:55.284Z,102275.91
2022-10-13T17:29:28.483Z,102280.03
2022-10-13T17:32:01.936Z,102279.41
2022-10-13T17:34:38.904Z,102282.00
2022-10-13T17:37:16.453Z,102278.50
2022-10-13T17:39:47.259Z,102282.09
2022-10-13T17:42:19.381Z,102283.47
2022-10-13T17:44:59.386Z,102279.47
2022-10-13T17:47:33.511Z,102278.09
2022-10-13T17:50:07.242Z,102275.97
2022-10-13T17:52:43.655Z,102275.88
2022-10-13T17:55:15.208Z,102280.72
2022-10-13T17:57:50.820Z,102285.75
2022-10-13T18:00:25.426Z,102284.72
2022-10-13T18:02:57.434Z,102288.22
2022-10-13T18:05:32.170Z,102288.69
2022-10-13T18:08:03.207Z,102286.06
2022-10-13T18:11:03.569Z,102290.59
2022-10-13T18:13:30.519Z,102280.81
2022-10-13T18:16:13.014Z,102285.50
2022-10-13T18:18:50.911Z,102283.94
2022-10-13T18:21:25.942Z,102287.06
2022-10-13T18:23:59.856Z,102288.44
2022-10-13T18:26:35.473Z,102282.94
2022-10-13T18:29:10.133Z,102287.31
2022-10-13T18:31:46.853Z,102280.63
2022-10-13T18:34:21.740Z,102284.47
2022-10-13T18:36:56.864Z,102281.47
2022-10-13T18:39:37.002Z,102282.47
2022-10-13T18:42:12.044Z,102285.94
2022-10-13T18:44:43.390Z,102289.59
2022-10-13T18:47:15.363Z,102290.59
2022-10-13T18:49:46.032Z,102293.44
2022-10-13T18:52:22.222Z,102293.34
2022-10-13T18:54:57.825Z,102298.31
2022-10-13T18:57:30.936Z,102293.81
2022-10-13T19:00:02.425Z,102302.06
2022-10-13T19:02:35.401Z,102295.81
2022-10-13T19:05:06.103Z,102305.91
2022-10-13T19:07:39.088Z,102302.44
2022-10-13T19:10:10.685Z,102302.53
2022-10-13T19:12:40.784Z,102308.81
2022-10-13T19:15:11.605Z,102303.16
2022-10-13T19:17:43.707Z,102303.16
2022-10-13T19:20:15.246Z,102306.81
2022-10-13T19:22:46.117Z,102304.06
2022-10-13T19:25:18.964Z,102300.16
2022-10-13T19:27:49.027Z,102307.16
2022-10-13T19:30:20.194Z,102301.28
2022-10-13T19:32:53.969Z,102306.25
2022-10-13T19:35:24.918Z,102305.13
2022-10-13T19:37:54.738Z,102318.06
2022-10-13T19:40:29.850Z,102314.56
2022-10-13T19:42:59.891Z,102314.28
2022-10-13T19:45:59.910Z,102319.72
2022-10-13T19:48:31.301Z,102313.34
2022-10-13T19:51:02.518Z,102316.25
2022-10-13T19:53:32.746Z,102311.47
2022-10-13T19:56:03.878Z,102316.25
2022-10-13T19:58:33.972Z,102312.78
2022-10-13T20:01:06.140Z,102318.88
2022-10-13T20:03:38.233Z,102317.56
2022-10-13T20:06:09.818Z,102311.84
2022-10-13T20:08:42.205Z,102315.16
2022-10-13T20:11:15.740Z,102318.75
2022-10-13T20:13:48.981Z,102311.63
2022-10-13T20:16:21.925Z,102310.88
2022-10-13T20:18:55.988Z,102304.75
2022-10-13T20:21:27.513Z,102299.72
2022-10-13T20:23:58.711Z,102296.81
2022-10-13T20:26:28.821Z,102291.94
2022-10-13T20:28:59.732Z,102295.56
2022-10-13T20:31:30.768Z,102294.72
2022-10-13T20:34:02.130Z,102292.03
2022-10-13T20:36:38.532Z,102292.84
2022-10-13T20:39:10.344Z,102288.69
2022-10-13T20:41:41.204Z,102295.06
2022-10-13T20:44:12.650Z,102303.78
2022-10-13T20:46:42.718Z,102294.28
2022-10-13T20:49:13.933Z,102305.25
2022-10-13T20:51:45.846Z,102297.81
2022-10-13T20:54:17.425Z,102304.03
2022-10-13T20:56:48.838Z,102298.75
2022-10-13T20:59:21.028Z,102303.97
2022-10-13T21:01:51.794Z,102300.09
2022-10-13T21:04:23.245Z,102291.09
2022-10-13T21:06:54.569Z,102287.28
2022-10-13T21:09:24.821Z,102291.22
2022-10-13T21:11:55.798Z,102287.66
2022-10-13T21:14:26.422Z,102289.09
2022-10-13T21:16:56.609Z,102294.22
2022-10-13T21:19:29.961Z,102280.25
2022-10-13T21:22:00.791Z,102292.59
2022-10-13T21:24:31.709Z,102287.94
2022-10-13T21:27:08.367Z,102288.78
2022-10-13T21:29:38.713Z,102296.81
2022-10-13T21:32:09.751Z,102295.69
2022-10-13T21:34:41.210Z,102291.44
2022-10-13T21:37:11.673Z,102296.50
2022-10-13T21:39:41.433Z,102298.78
2022-10-13T21:42:11.178Z,102295.44
2022-10-13T21:44:41.665Z,102301.50
2022-10-13T21:47:12.711Z,102298.16
2022-10-13T21:49:44.199Z,102296.22
2022-10-13T21:52:16.056Z,102296.53
2022-10-13T21:54:46.705Z,102288.41
2022-10-13T21:57:17.884Z,102289.16
2022-10-13T21:59:48.900Z,102292.03
2022-10-13T22:02:19.678Z,102288.97
2022-10-13T22:04:51.330Z,102295.88
2022-10-13T22:07:21.909Z,102301.00
2022-10-13T22:09:51.860Z,102295.13
2022-10-13T22:12:22.256Z,102289.91
2022-10-13T22:14:52.669Z,102294.00
2022-10-13T22:17:23.982Z,102302.25
2022-10-13T22:19:56.285Z,102305.63
2022-10-13T22:22:30.881Z,102306.41
2022-10-13T22:25:01.877Z,102295.78
2022-10-13T22:27:36.627Z,102301.25
2022-10-13T22:30:07.419Z,102287.44
2022-10-13T22:32:37.438Z,102289.84
2022-10-13T22:35:10.086Z,102297.97
2022-10-13T22:37:40.595Z,102299.84
2022-10-13T22:40:11.688Z,102294.03
2022-10-13T22:42:42.562Z,102300.03
2022-10-13T22:45:12.852Z,102300.03
2022-10-13T22:47:43.535Z,102303.00
2022-10-13T22:50:15.066Z,102306.06
2022-10-13T22:52:45.085Z,102305.19
2022-10-13T22:55:15.977Z,102305.63
2022-10-13T22:57:46.592Z,102304.50
2022-10-13T23:00:17.699Z,102313.53
2022-10-13T23:02:49.511Z,102304.66
2022-10-13T23:05:21.085Z,102307.91
2022-10-13T23:07:51.524Z,102304.41
2022-10-13T23:10:21.097Z,102305.81
2022-10-13T23:12:51.654Z,102310.31
2022-10-13T23:15:22.509Z,102313.63
2022-10-13T23:17:52.447Z,102317.53
2022-10-13T23:20:24.221Z,102320.94
2022-10-13T23:22:54.571Z,102317.13
2022-10-13T23:25:25.548Z,102312.31
2022-10-13T23:27:56.532Z,102312.31
2022-10-13T23:30:26.541Z,102305.06
2022-10-13T23:32:57.485Z,102305.72
2022-10-13T23:35:28.974Z,102308.56
2022-10-13T23:37:59.533Z,102308.34
2022-10-13T23:40:30.359Z,102309.19
2022-10-13T23:43:00.525Z,102308.13
2022-10-13T23:45:29.985Z,102302.88
2022-10-13T23:48:00.522Z,102306.81
2022-10-13T23:50:33.031Z,102307.88
2022-10-13T23:53:04.596Z,102307.69
2022-10-13T23:55:38.372Z,102300.00
2022-10-13T23:58:09.660Z,102304.53
